KFCH

Fresno Chandler Executive Airport

Fresno, California, USA
METAR KFCH 210515Z AUTO 32009KT 10SM CLR 27/08 A2981 RMK A01
Observed Flight Rules
Aug-21 @ 05:15 UTC (9 hours ago) Visual Flight Rules
Wind Visibility Clouds
320° at 9 knots 10 miles
  • Clear skies
Temperatures Readings
Current 27°C / 81°F
Dewpoint 8°C / 46°F
Humidity 30%
Altimeter 29.81" Hg
Pressure 1009 hPa
Elevation 85
METAR KFCH 210515Z AUTO 32009KT 10SM CLR 27/08 A2981 RMK A01
Observed Flight Rules
Aug-21 @ 05:15 UTC
(9 hours ago)
VFR
Wind Visibility
320° at 9 knots 10 miles
Clouds
  • Clear skies
Temperature Dewpoint
27°C / 81°F 8°C / 46°F
Humidity Altimeter Pressure
30% 29.81" Hg 1009 hPa